Terminal Aerodrome Forecast
Issued by NWS Upton, NY

Home | Current Version | Previous Version | Text Only | Print | Product List | Glossary On
Versions: 1 2 3 4 5 6 7 8 9 10 11 12 13 14 15 16 17 18 19 20 21 22 23 24 25 26 27 28 29 30 31 32 33
752
FTUS41 KOKX 291139
TAFLGA
TAF
KLGA 291139Z 2912/3012 34016G24KT P6SM SCT040 SCT250
      TEMPO 2912/2914 BKN025
     FM292300 35012G18KT P6SM FEW250
     FM300200 35012KT P6SM FEW250
     FM300700 35009KT P6SM FEW250=

USA.gov is the U.S. government's official web portal to all federal, state and local government web resources and services.